createdAt,value
2022-07-30T00:01:44.241Z,5.23
2022-07-30T00:04:10.953Z,6.77
2022-07-30T00:06:40.066Z,4.77
2022-07-30T00:09:06.812Z,4.53
2022-07-30T00:11:33.691Z,5.83
2022-07-30T00:14:00.433Z,7.10
2022-07-30T00:16:27.279Z,5.90
2022-07-30T00:18:54.086Z,8.37
2022-07-30T00:21:35.852Z,7.87
2022-07-30T00:24:05.629Z,5.03
2022-07-30T00:26:32.418Z,6.87
2022-07-30T00:28:59.188Z,6.33
2022-07-30T00:31:26.080Z,5.97
2022-07-30T00:33:52.766Z,5.97
2022-07-30T00:36:19.463Z,5.67
2022-07-30T00:38:46.221Z,8.00
2022-07-30T00:41:12.983Z,7.73
2022-07-30T00:43:42.926Z,5.73
2022-07-30T00:46:09.691Z,7.80
2022-07-30T00:48:36.572Z,6.83
2022-07-30T00:51:03.314Z,10.13
2022-07-30T00:53:29.964Z,6.47
2022-07-30T00:55:56.701Z,6.43
2022-07-30T00:58:23.397Z,6.37
2022-07-30T01:00:50.118Z,8.37
2022-07-30T01:03:16.823Z,6.10
2022-07-30T01:05:43.492Z,7.07
2022-07-30T01:08:10.147Z,6.23
2022-07-30T01:10:36.881Z,8.13
2022-07-30T01:13:04.499Z,6.53
2022-07-30T01:15:31.445Z,8.57
2022-07-30T01:18:00.333Z,6.97
2022-07-30T01:21:05.649Z,7.73
2022-07-30T01:23:37.390Z,7.70
2022-07-30T01:26:04.807Z,16.03
2022-07-30T01:28:39.498Z,9.80
2022-07-30T01:31:07.138Z,9.63
2022-07-30T01:33:35.837Z,9.77
2022-07-30T01:36:03.160Z,12.90
2022-07-30T01:38:34.958Z,10.33
2022-07-30T01:41:02.851Z,7.33
2022-07-30T01:43:31.160Z,9.90
2022-07-30T01:45:58.185Z,8.03
2022-07-30T01:48:26.028Z,7.77
2022-07-30T01:50:55.052Z,6.53
2022-07-30T01:53:24.813Z,5.80
2022-07-30T01:55:52.301Z,6.00
2022-07-30T01:58:20.516Z,8.60
2022-07-30T02:00:49.533Z,7.70
2022-07-30T02:03:16.370Z,9.60
2022-07-30T02:05:51.125Z,9.70
2022-07-30T02:08:27.118Z,6.20
2022-07-30T02:11:08.133Z,8.97
2022-07-30T02:13:42.374Z,8.63
2022-07-30T02:16:24.644Z,8.47
2022-07-30T02:19:06.751Z,8.43
2022-07-30T02:21:38.360Z,11.23
2022-07-30T02:24:08.697Z,11.00
2022-07-30T02:26:36.272Z,10.87
2022-07-30T02:29:04.926Z,8.83
2022-07-30T02:31:34.447Z,7.93
2022-07-30T02:34:03.759Z,8.60
2022-07-30T02:36:31.425Z,7.93
2022-07-30T02:38:58.732Z,7.40
2022-07-30T02:41:27.393Z,7.90
2022-07-30T02:43:55.046Z,8.67
2022-07-30T02:46:23.265Z,7.50
2022-07-30T02:48:50.609Z,11.20
2022-07-30T02:51:17.761Z,7.73
2022-07-30T02:53:46.809Z,8.77
2022-07-30T02:56:16.083Z,10.87
2022-07-30T02:58:44.434Z,9.70
2022-07-30T03:01:12.371Z,9.83
2022-07-30T03:03:40.581Z,8.63
2022-07-30T03:06:07.918Z,8.93
2022-07-30T03:08:34.708Z,8.03
2022-07-30T03:11:03.351Z,8.30
2022-07-30T03:13:30.070Z,7.73
2022-07-30T03:15:58.548Z,7.97
2022-07-30T03:18:28.401Z,10.70
2022-07-30T03:20:56.799Z,11.97
2022-07-30T03:23:24.114Z,10.43
2022-07-30T03:25:55.039Z,12.00
2022-07-30T03:28:22.997Z,10.33
2022-07-30T03:30:50.633Z,9.10
2022-07-30T03:33:18.022Z,10.23
2022-07-30T03:35:47.274Z,10.43
2022-07-30T03:38:15.049Z,9.87
2022-07-30T03:40:42.715Z,7.93
2022-07-30T03:43:32.475Z,9.70
2022-07-30T03:45:57.994Z,8.03
2022-07-30T03:48:25.563Z,8.13
2022-07-30T03:50:52.207Z,9.30
2022-07-30T03:53:19.534Z,8.43
2022-07-30T03:55:46.242Z,8.43
2022-07-30T03:58:12.976Z,8.23
2022-07-30T04:00:40.954Z,9.93
2022-07-30T04:03:08.276Z,8.37
2022-07-30T04:05:37.404Z,9.73
2022-07-30T04:08:07.883Z,8.17
2022-07-30T04:10:34.714Z,9.60
2022-07-30T04:13:01.407Z,9.37
2022-07-30T04:16:37.798Z,8.90
2022-07-30T04:18:16.129Z,8.50
2022-07-30T04:20:45.224Z,9.37
2022-07-30T04:23:12.249Z,9.57
2022-07-30T04:25:40.373Z,12.20
2022-07-30T04:28:07.309Z,10.93
2022-07-30T04:30:35.054Z,10.70
2022-07-30T04:33:03.814Z,11.47
2022-07-30T04:35:50.985Z,11.67
2022-07-30T04:38:18.782Z,13.23
2022-07-30T04:40:46.014Z,12.47
2022-07-30T04:43:12.683Z,10.70
2022-07-30T04:45:40.461Z,10.53
2022-07-30T04:48:07.582Z,10.60
2022-07-30T04:50:36.424Z,10.90
2022-07-30T04:53:03.366Z,10.17
2022-07-30T04:55:30.804Z,12.73
2022-07-30T04:57:58.179Z,9.90
2022-07-30T05:00:24.914Z,14.47
2022-07-30T05:02:52.312Z,13.03
2022-07-30T05:05:19.280Z,15.03
2022-07-30T05:07:46.270Z,13.80
2022-07-30T05:10:13.630Z,14.83
2022-07-30T05:12:40.414Z,15.77
2022-07-30T05:15:09.482Z,18.07
2022-07-30T05:17:36.710Z,17.90
2022-07-30T05:20:04.383Z,20.47
2022-07-30T05:22:31.161Z,19.83
2022-07-30T05:24:58.301Z,23.27
2022-07-30T05:27:25.051Z,25.80
2022-07-30T05:29:52.168Z,25.93
2022-07-30T05:32:23.946Z,34.73
2022-07-30T05:34:53.733Z,38.37
2022-07-30T05:37:20.418Z,43.77
2022-07-30T05:39:59.267Z,35.83
2022-07-30T05:42:30.330Z,39.67
2022-07-30T05:44:57.123Z,45.77
2022-07-30T05:47:23.849Z,37.43
2022-07-30T05:49:50.584Z,38.90
2022-07-30T05:52:17.268Z,41.50
2022-07-30T05:54:43.963Z,38.77
2022-07-30T05:57:10.745Z,40.00
2022-07-30T05:59:37.465Z,36.17
2022-07-30T06:02:04.765Z,34.07
2022-07-30T06:04:31.482Z,32.90
2022-07-30T06:06:58.466Z,31.93
2022-07-30T06:09:26.419Z,30.10
2022-07-30T06:12:03.716Z,34.57
2022-07-30T06:14:32.296Z,34.47
2022-07-30T06:16:59.304Z,35.13
2022-07-30T06:19:26.645Z,30.50
2022-07-30T06:22:05.808Z,28.43
2022-07-30T06:24:34.001Z,34.00
2022-07-30T06:27:00.983Z,31.03
2022-07-30T06:29:27.936Z,25.40
2022-07-30T06:31:54.656Z,22.60
2022-07-30T06:34:21.595Z,20.53
2022-07-30T06:36:49.057Z,24.03
2022-07-30T06:39:53.790Z,22.10
2022-07-30T06:42:02.866Z,20.63
2022-07-30T06:44:30.169Z,24.47
2022-07-30T06:46:56.866Z,25.30
2022-07-30T06:49:23.621Z,27.00
2022-07-30T06:51:50.402Z,26.03
2022-07-30T06:54:17.362Z,20.70
2022-07-30T06:56:44.293Z,16.17
2022-07-30T06:59:10.947Z,18.93
2022-07-30T07:01:37.841Z,19.87
2022-07-30T07:04:04.874Z,17.87
2022-07-30T07:06:31.553Z,16.50
2022-07-30T07:08:58.221Z,17.23
2022-07-30T07:11:25.235Z,15.27
2022-07-30T07:13:52.034Z,14.40
2022-07-30T07:16:25.077Z,14.50
2022-07-30T07:18:52.612Z,13.60
2022-07-30T07:21:20.076Z,14.37
2022-07-30T07:23:48.671Z,14.60
2022-07-30T07:26:16.102Z,13.23
2022-07-30T07:28:43.239Z,16.97
2022-07-30T07:31:10.890Z,15.30
2022-07-30T07:33:38.088Z,17.43
2022-07-30T07:36:05.086Z,18.63
2022-07-30T07:38:31.768Z,15.77
2022-07-30T07:40:58.551Z,17.20
2022-07-30T07:43:25.455Z,14.77
2022-07-30T07:45:52.227Z,14.40
2022-07-30T07:48:19.550Z,13.27
2022-07-30T07:50:46.200Z,13.57
2022-07-30T07:53:13.042Z,11.83
2022-07-30T07:55:40.213Z,12.67
2022-07-30T07:58:06.972Z,12.23
2022-07-30T08:00:33.719Z,12.23
2022-07-30T08:03:00.435Z,12.13
2022-07-30T08:05:58.217Z,11.83
2022-07-30T08:08:14.239Z,11.77
2022-07-30T08:10:40.929Z,10.77
2022-07-30T08:13:49.134Z,9.83
2022-07-30T08:15:57.340Z,11.90
2022-07-30T08:18:24.189Z,12.10
2022-07-30T08:20:51.704Z,11.17
2022-07-30T08:23:19.413Z,10.70
2022-07-30T08:25:46.125Z,10.80
2022-07-30T08:28:35.354Z,10.67
2022-07-30T08:31:02.178Z,12.30
2022-07-30T08:33:29.424Z,11.40
2022-07-30T08:35:59.173Z,11.70
2022-07-30T08:38:30.824Z,12.40
2022-07-30T08:40:58.415Z,12.33
2022-07-30T08:43:26.311Z,9.70
2022-07-30T08:45:53.995Z,11.73
2022-07-30T08:48:22.570Z,13.87
2022-07-30T08:50:50.072Z,10.90
2022-07-30T08:53:17.573Z,9.10
2022-07-30T08:55:44.889Z,9.37
2022-07-30T08:58:24.725Z,10.63
2022-07-30T09:00:51.588Z,9.83
2022-07-30T09:03:18.416Z,9.37
2022-07-30T09:05:45.108Z,9.83
2022-07-30T09:08:11.825Z,11.50
2022-07-30T09:10:38.636Z,8.40
2022-07-30T09:13:43.221Z,9.30
2022-07-30T09:16:20.333Z,9.40
2022-07-30T09:18:47.180Z,9.83
2022-07-30T09:21:28.714Z,8.23
2022-07-30T09:23:56.405Z,8.97
2022-07-30T09:26:23.152Z,8.80
2022-07-30T09:28:49.825Z,6.53
2022-07-30T09:31:17.630Z,7.07
2022-07-30T09:33:45.432Z,6.43
2022-07-30T09:36:18.495Z,5.77
2022-07-30T09:38:51.718Z,6.50
2022-07-30T09:41:40.722Z,7.50
2022-07-30T09:44:07.785Z,5.13
2022-07-30T09:46:42.581Z,5.47
2022-07-30T09:49:20.359Z,5.00
2022-07-30T09:51:54.482Z,8.23
2022-07-30T09:54:52.037Z,5.07
2022-07-30T09:57:26.470Z,7.10
2022-07-30T10:00:00.011Z,8.23
2022-07-30T10:02:32.400Z,4.45
2022-07-30T10:05:14.459Z,5.40
2022-07-30T10:07:58.559Z,3.10
2022-07-30T10:10:31.195Z,4.57
2022-07-30T10:13:04.639Z,8.50
2022-07-30T10:15:33.584Z,3.58
2022-07-30T10:18:02.896Z,4.25
2022-07-30T10:20:34.869Z,5.32
2022-07-30T10:23:07.800Z,5.18
2022-07-30T10:25:36.897Z,3.63
2022-07-30T10:28:17.643Z,4.57
2022-07-30T10:30:45.374Z,6.35
2022-07-30T10:33:34.570Z,3.53
2022-07-30T10:35:59.368Z,3.42
2022-07-30T10:38:33.332Z,3.17
2022-07-30T10:41:08.854Z,3.00
2022-07-30T10:44:11.694Z,3.05
2022-07-30T10:47:06.506Z,2.58
2022-07-30T10:49:40.668Z,3.10
2022-07-30T10:52:08.773Z,2.50
2022-07-30T10:54:40.489Z,4.13
2022-07-30T10:57:14.666Z,3.42
2022-07-30T10:59:52.595Z,3.15
2022-07-30T11:02:20.646Z,4.15
2022-07-30T11:04:49.860Z,3.08
2022-07-30T11:07:25.408Z,5.45
2022-07-30T11:10:04.819Z,3.17
2022-07-30T11:12:46.175Z,3.55
2022-07-30T11:15:19.966Z,5.13
2022-07-30T11:18:04.789Z,4.28
2022-07-30T11:20:39.313Z,4.35
2022-07-30T11:23:14.022Z,4.30
2022-07-30T11:25:51.503Z,5.07
2022-07-30T11:28:41.777Z,4.10
2022-07-30T11:31:54.874Z,6.38
2022-07-30T11:34:18.892Z,5.28
2022-07-30T11:37:18.313Z,3.53
2022-07-30T11:39:57.683Z,5.00
2022-07-30T11:42:35.354Z,4.60
2022-07-30T11:45:17.256Z,3.47
2022-07-30T11:47:45.853Z,5.40
2022-07-30T11:50:19.231Z,4.93
2022-07-30T11:52:57.864Z,4.35
2022-07-30T11:55:33.672Z,3.83
2022-07-30T11:58:02.442Z,6.03
2022-07-30T12:00:40.800Z,3.55
2022-07-30T12:03:09.821Z,2.95
2022-07-30T12:05:36.583Z,2.92
2022-07-30T12:08:03.497Z,3.33
2022-07-30T12:10:30.231Z,3.10
2022-07-30T12:13:16.220Z,2.90
2022-07-30T12:15:47.433Z,2.70
2022-07-30T12:18:26.288Z,2.95
2022-07-30T12:20:55.334Z,3.30
2022-07-30T12:23:25.092Z,4.43
2022-07-30T12:25:52.262Z,4.35
2022-07-30T12:28:24.731Z,3.17
2022-07-30T12:30:52.559Z,3.85
2022-07-30T12:33:20.447Z,4.07
2022-07-30T12:35:55.389Z,3.28
2022-07-30T12:38:23.423Z,2.80
2022-07-30T12:41:03.584Z,3.95
2022-07-30T12:43:48.619Z,3.00
2022-07-30T12:46:26.855Z,3.15
2022-07-30T12:49:19.152Z,2.80
2022-07-30T12:52:00.421Z,4.68
2022-07-30T12:54:27.940Z,4.85
2022-07-30T12:57:03.244Z,3.15
2022-07-30T12:59:31.744Z,2.90
2022-07-30T13:02:00.710Z,2.67
2022-07-30T13:04:28.122Z,2.63
2022-07-30T13:07:05.534Z,2.80
2022-07-30T13:09:32.514Z,2.70
2022-07-30T13:11:59.375Z,3.78
2022-07-30T13:14:27.226Z,3.85
2022-07-30T13:16:56.050Z,3.67
2022-07-30T13:19:23.064Z,2.75
2022-07-30T13:21:50.230Z,3.58
2022-07-30T13:24:18.388Z,2.60
2022-07-30T13:26:45.536Z,2.50
2022-07-30T13:29:13.682Z,2.67
2022-07-30T13:31:43.155Z,4.13
2022-07-30T13:34:10.861Z,2.45
2022-07-30T13:36:37.515Z,3.65
2022-07-30T13:39:04.497Z,2.53
2022-07-30T13:41:31.252Z,3.58
2022-07-30T13:43:58.013Z,3.83
2022-07-30T13:46:24.768Z,2.40
2022-07-30T13:48:52.251Z,1.90
2022-07-30T13:51:19.014Z,1.83
2022-07-30T13:53:45.944Z,2.75
2022-07-30T13:56:13.169Z,3.25
2022-07-30T13:58:40.394Z,2.17
2022-07-30T14:01:07.558Z,1.95
2022-07-30T14:03:35.399Z,3.35
2022-07-30T14:06:10.500Z,3.45
2022-07-30T14:08:37.937Z,2.50
2022-07-30T14:11:04.681Z,2.40
2022-07-30T14:13:31.409Z,2.05
2022-07-30T14:15:58.220Z,1.90
2022-07-30T14:18:24.939Z,2.22
2022-07-30T14:20:53.782Z,2.40
2022-07-30T14:23:20.808Z,1.90
2022-07-30T14:25:47.740Z,1.80
2022-07-30T14:28:14.862Z,2.15
2022-07-30T14:30:42.176Z,1.80
2022-07-30T14:33:08.986Z,2.03
2022-07-30T14:35:35.690Z,1.92
2022-07-30T14:38:03.716Z,1.88
2022-07-30T14:40:30.635Z,2.08
2022-07-30T14:42:58.043Z,2.90
2022-07-30T14:45:25.539Z,1.98
2022-07-30T14:47:52.540Z,1.90
2022-07-30T14:50:19.547Z,1.55
2022-07-30T14:52:47.627Z,2.10
2022-07-30T14:55:14.676Z,1.88
2022-07-30T14:57:43.550Z,1.90
2022-07-30T15:00:12.861Z,2.08
2022-07-30T15:02:40.984Z,2.10
2022-07-30T15:05:08.757Z,1.95
2022-07-30T15:07:35.451Z,3.53
2022-07-30T15:10:09.335Z,3.55
2022-07-30T15:12:39.513Z,2.15
2022-07-30T15:15:08.427Z,1.48
2022-07-30T15:17:39.791Z,2.78
2022-07-30T15:20:09.254Z,1.80
2022-07-30T15:22:36.448Z,1.92
2022-07-30T15:25:03.181Z,2.72
2022-07-30T15:27:33.948Z,4.82
2022-07-30T15:30:01.150Z,2.65
2022-07-30T15:32:27.780Z,1.55
2022-07-30T15:35:05.118Z,2.17
2022-07-30T15:37:31.824Z,1.80
2022-07-30T15:39:58.762Z,2.47
2022-07-30T15:42:27.464Z,2.53
2022-07-30T15:45:15.336Z,1.73
2022-07-30T15:47:40.872Z,3.22
2022-07-30T15:50:08.349Z,2.17
2022-07-30T15:52:36.699Z,2.08
2022-07-30T15:55:05.194Z,2.10
2022-07-30T15:57:32.024Z,1.90
2022-07-30T15:59:59.297Z,2.20
2022-07-30T16:02:28.415Z,3.83
2022-07-30T16:04:56.925Z,3.05
2022-07-30T16:07:23.662Z,2.00
2022-07-30T16:09:50.337Z,2.67
2022-07-30T16:12:17.015Z,2.75
2022-07-30T16:14:43.830Z,1.85
2022-07-30T16:17:14.222Z,2.65
2022-07-30T16:19:45.090Z,2.67
2022-07-30T16:22:12.880Z,2.38
2022-07-30T16:24:50.064Z,2.97
2022-07-30T16:27:16.825Z,3.00
2022-07-30T16:29:43.488Z,2.15
2022-07-30T16:32:10.242Z,2.53
2022-07-30T16:34:38.929Z,1.98
2022-07-30T16:37:05.681Z,2.72
2022-07-30T16:39:36.913Z,5.47
2022-07-30T16:42:06.687Z,2.20
2022-07-30T16:44:34.569Z,2.30
2022-07-30T16:47:01.264Z,2.20
2022-07-30T16:49:28.121Z,2.28
2022-07-30T16:51:55.039Z,3.00
2022-07-30T16:54:21.696Z,2.33
2022-07-30T16:56:52.805Z,2.35
2022-07-30T16:59:20.611Z,3.83
2022-07-30T17:01:48.137Z,3.05
2022-07-30T17:04:15.207Z,2.67
2022-07-30T17:06:44.134Z,3.25
2022-07-30T17:09:12.083Z,2.70
2022-07-30T17:11:47.380Z,2.35
2022-07-30T17:14:19.146Z,2.50
2022-07-30T17:16:45.960Z,2.13
2022-07-30T17:19:15.332Z,2.00
2022-07-30T17:21:42.147Z,1.98
2022-07-30T17:24:14.094Z,2.15
2022-07-30T17:26:43.694Z,2.22
2022-07-30T17:29:15.338Z,2.40
2022-07-30T17:31:44.478Z,2.65
2022-07-30T17:34:13.948Z,2.30
2022-07-30T17:36:42.659Z,2.30
2022-07-30T17:40:18.750Z,4.57
2022-07-30T17:42:04.589Z,2.10
2022-07-30T17:44:31.334Z,2.78
2022-07-30T17:46:58.004Z,2.40
2022-07-30T17:49:24.972Z,3.47
2022-07-30T17:51:51.677Z,3.53
2022-07-30T17:54:18.405Z,2.20
2022-07-30T17:56:47.777Z,2.78
2022-07-30T17:59:14.533Z,2.65
2022-07-30T18:01:41.418Z,2.40
2022-07-30T18:04:08.288Z,1.90
2022-07-30T18:06:35.353Z,2.10
2022-07-30T18:09:03.036Z,1.90
2022-07-30T18:11:29.825Z,2.63
2022-07-30T18:13:56.973Z,2.38
2022-07-30T18:16:24.782Z,2.08
2022-07-30T18:18:51.594Z,2.95
2022-07-30T18:21:18.525Z,3.08
2022-07-30T18:23:45.443Z,3.30
2022-07-30T18:26:12.727Z,2.10
2022-07-30T18:28:39.495Z,3.75
2022-07-30T18:31:06.477Z,3.63
2022-07-30T18:33:33.302Z,2.20
2022-07-30T18:36:00.079Z,3.63
2022-07-30T18:38:26.775Z,4.05
2022-07-30T18:40:59.402Z,3.13
2022-07-30T18:43:27.803Z,3.53
2022-07-30T18:45:55.632Z,3.35
2022-07-30T18:48:29.039Z,2.83
2022-07-30T18:50:55.705Z,3.35
2022-07-30T18:53:22.369Z,3.85
2022-07-30T18:55:49.129Z,4.03
2022-07-30T18:58:15.948Z,5.57
2022-07-30T19:00:44.215Z,2.35
2022-07-30T19:03:16.318Z,3.58
2022-07-30T19:05:44.387Z,2.50
2022-07-30T19:08:11.076Z,2.58
2022-07-30T19:10:37.875Z,3.47
2022-07-30T19:13:05.528Z,3.10
2022-07-30T19:15:32.376Z,3.45
2022-07-30T19:17:59.429Z,3.10
2022-07-30T19:20:26.785Z,3.83
2022-07-30T19:23:05.329Z,2.55
2022-07-30T19:25:33.939Z,2.60
2022-07-30T19:28:02.444Z,2.45
2022-07-30T19:30:30.442Z,2.92
2022-07-30T19:33:14.228Z,2.30
2022-07-30T19:35:46.922Z,6.43
2022-07-30T19:38:23.719Z,2.53
2022-07-30T19:40:51.043Z,3.75
2022-07-30T19:43:23.836Z,2.75
2022-07-30T19:45:51.361Z,2.97
2022-07-30T19:48:29.486Z,2.30
2022-07-30T19:53:53.367Z,5.93
2022-07-30T19:56:20.221Z,3.08
2022-07-30T19:58:50.172Z,2.17
2022-07-30T20:01:16.875Z,2.35
2022-07-30T20:03:45.935Z,2.75
2022-07-30T20:06:15.956Z,2.22
2022-07-30T20:09:00.410Z,2.40
2022-07-30T20:11:36.054Z,3.53
2022-07-30T20:14:03.406Z,2.58
2022-07-30T20:16:30.150Z,2.60
2022-07-30T20:18:59.314Z,3.75
2022-07-30T20:21:57.806Z,3.25
2022-07-30T20:24:15.390Z,3.65
2022-07-30T20:26:42.286Z,2.47
2022-07-30T20:29:19.014Z,3.53
2022-07-30T20:31:46.405Z,2.70
2022-07-30T20:34:23.559Z,2.50
2022-07-30T20:37:04.336Z,3.25
2022-07-30T20:39:42.650Z,3.58
2022-07-30T20:42:13.936Z,3.05
2022-07-30T20:44:50.693Z,2.80
2022-07-30T20:47:34.871Z,3.85
2022-07-30T20:50:10.705Z,2.95
2022-07-30T20:52:40.489Z,3.33
2022-07-30T20:55:09.260Z,5.95
2022-07-30T20:57:56.406Z,4.78
2022-07-30T21:00:23.400Z,3.20
2022-07-30T21:02:52.159Z,4.20
2022-07-30T21:05:20.064Z,3.40
2022-07-30T21:07:47.034Z,3.40
2022-07-30T21:10:14.586Z,3.40
2022-07-30T21:12:44.844Z,3.75
2022-07-30T21:15:23.874Z,4.05
2022-07-30T21:17:51.535Z,4.65
2022-07-30T21:20:27.542Z,5.65
2022-07-30T21:22:56.073Z,4.78
2022-07-30T21:25:32.562Z,3.30
2022-07-30T21:28:02.841Z,5.78
2022-07-30T21:30:30.854Z,5.47
2022-07-30T21:32:58.305Z,5.00
2022-07-30T21:35:25.453Z,2.83
2022-07-30T21:37:59.396Z,3.15
2022-07-30T21:40:28.673Z,4.32
2022-07-30T21:42:56.215Z,3.53
2022-07-30T21:45:27.003Z,5.10
2022-07-30T21:48:07.305Z,3.78
2022-07-30T21:50:33.993Z,3.47
2022-07-30T21:53:01.175Z,5.03
2022-07-30T21:55:27.977Z,4.30
2022-07-30T21:58:00.236Z,5.20
2022-07-30T22:00:48.582Z,4.07
2022-07-30T22:04:03.044Z,4.07
2022-07-30T22:06:05.054Z,4.65
2022-07-30T22:08:39.266Z,3.70
2022-07-30T22:11:09.092Z,2.85
2022-07-30T22:13:53.493Z,3.20
2022-07-30T22:16:21.964Z,4.60
2022-07-30T22:18:50.021Z,3.75
2022-07-30T22:21:18.490Z,3.40
2022-07-30T22:23:54.782Z,6.18
2022-07-30T22:26:28.341Z,3.63
2022-07-30T22:28:55.369Z,3.80
2022-07-30T22:31:24.541Z,3.38
2022-07-30T22:33:57.720Z,4.00
2022-07-30T22:36:24.662Z,4.75
2022-07-30T22:38:58.545Z,5.30
2022-07-30T22:41:28.785Z,4.03
2022-07-30T22:43:58.372Z,3.45
2022-07-30T22:46:30.972Z,3.83
2022-07-30T22:48:58.008Z,3.50
2022-07-30T22:51:26.189Z,3.33
2022-07-30T22:57:04.078Z,4.93
2022-07-30T23:00:00.062Z,3.80
2022-07-30T23:02:17.863Z,4.05
2022-07-30T23:04:44.769Z,5.07
2022-07-30T23:07:14.003Z,3.58
2022-07-30T23:09:52.004Z,6.93
2022-07-30T23:12:15.155Z,3.20
2022-07-30T23:12:20.142Z,4.25
2022-07-30T23:12:30.761Z,3.33
2022-07-30T23:14:48.795Z,3.53
2022-07-30T23:17:15.507Z,3.45
2022-07-30T23:19:42.181Z,3.20
2022-07-30T23:22:12.255Z,3.60
2022-07-30T23:24:39.040Z,3.08
2022-07-30T23:27:06.421Z,4.40
2022-07-30T23:29:33.284Z,3.58
2022-07-30T23:31:59.964Z,4.10
2022-07-30T23:34:26.736Z,3.85
2022-07-30T23:36:57.125Z,4.00
2022-07-30T23:39:24.885Z,3.67
2022-07-30T23:41:51.605Z,3.47
2022-07-30T23:44:18.368Z,3.60
2022-07-30T23:46:45.042Z,3.05
2022-07-30T23:49:11.801Z,3.50
2022-07-30T23:51:39.135Z,3.20
2022-07-30T23:54:06.497Z,2.78
2022-07-30T23:56:33.244Z,3.05
2022-07-30T23:59:00.576Z,2.97
